createdAt,value
2019-01-13T00:01:02.279Z,97.90
2019-01-13T00:03:37.200Z,97.80
2019-01-13T00:06:12.378Z,97.90
2019-01-13T00:08:48.829Z,97.80
2019-01-13T00:11:23.692Z,97.50
2019-01-13T00:13:58.816Z,97.50
2019-01-13T00:16:33.670Z,97.40
2019-01-13T00:19:08.549Z,97.30
2019-01-13T00:21:43.401Z,97.30
2019-01-13T00:24:18.246Z,97.30
2019-01-13T00:26:53.099Z,97.50
2019-01-13T00:29:27.935Z,97.50
2019-01-13T00:32:02.798Z,97.60
2019-01-13T00:34:37.661Z,97.60
2019-01-13T00:37:13.106Z,97.60
2019-01-13T00:39:48.910Z,97.70
2019-01-13T00:42:23.811Z,97.90
2019-01-13T00:44:58.743Z,97.90
2019-01-13T00:47:34.235Z,97.80
2019-01-13T00:50:14.518Z,97.90
2019-01-13T00:52:50.095Z,97.70
2019-01-13T00:55:25.010Z,97.70
2019-01-13T00:57:59.953Z,97.80
2019-01-13T01:00:34.782Z,97.90
2019-01-13T01:03:09.648Z,98.00
2019-01-13T01:05:45.159Z,97.80
2019-01-13T01:08:20.003Z,97.80
2019-01-13T01:10:54.837Z,98.00
2019-01-13T01:13:29.692Z,98.00
2019-01-13T01:16:04.613Z,98.00
2019-01-13T01:18:39.466Z,98.10
2019-01-13T01:21:15.576Z,98.10
2019-01-13T01:23:50.409Z,98.20
2019-01-13T01:26:25.537Z,98.00
2019-01-13T01:29:01.608Z,98.00
2019-01-13T01:31:36.446Z,97.90
2019-01-13T01:34:12.284Z,97.60
2019-01-13T01:36:47.125Z,97.60
2019-01-13T01:39:22.247Z,97.60
2019-01-13T01:41:57.392Z,97.60
2019-01-13T01:44:33.549Z,97.50
2019-01-13T01:47:09.277Z,97.50
2019-01-13T01:49:44.129Z,97.40
2019-01-13T01:52:19.287Z,97.30
2019-01-13T01:54:55.129Z,97.30
2019-01-13T01:57:31.286Z,97.00
2019-01-13T02:00:13.085Z,97.00
2019-01-13T02:02:47.932Z,96.80
2019-01-13T02:05:22.795Z,96.60
2019-01-13T02:07:57.974Z,96.80
2019-01-13T02:10:33.835Z,96.20
2019-01-13T02:13:08.803Z,96.10
2019-01-13T02:15:43.641Z,95.90
2019-01-13T02:18:20.604Z,95.80
2019-01-13T02:20:55.454Z,95.80
2019-01-13T02:23:30.646Z,95.60
2019-01-13T02:26:05.585Z,95.70
2019-01-13T02:28:40.433Z,95.40
2019-01-13T02:31:15.537Z,95.90
2019-01-13T02:33:50.371Z,95.60
2019-01-13T02:36:25.524Z,95.50
2019-01-13T02:39:00.370Z,95.60
2019-01-13T02:41:35.511Z,95.90
2019-01-13T02:44:11.969Z,95.90
2019-01-13T02:46:46.830Z,96.00
2019-01-13T02:49:21.674Z,96.30
2019-01-13T02:51:56.535Z,96.40
2019-01-13T02:54:31.477Z,96.50
2019-01-13T02:57:06.717Z,96.60
2019-01-13T02:59:42.228Z,96.90
2019-01-13T03:02:17.159Z,97.00
2019-01-13T03:04:53.271Z,97.10
2019-01-13T03:07:28.119Z,97.10
2019-01-13T03:10:03.339Z,97.20
2019-01-13T03:12:40.218Z,97.10
2019-01-13T03:15:19.982Z,97.70
2019-01-13T03:17:55.191Z,97.70
2019-01-13T03:20:30.449Z,97.90
2019-01-13T03:23:05.295Z,98.10
2019-01-13T03:25:40.223Z,98.10
2019-01-13T03:28:15.054Z,98.30
2019-01-13T03:30:51.119Z,98.30
2019-01-13T03:33:25.950Z,98.40
2019-01-13T03:36:01.065Z,98.30
2019-01-13T03:38:35.911Z,98.30
2019-01-13T03:41:11.066Z,98.40
2019-01-13T03:43:46.288Z,98.50
2019-01-13T03:46:21.217Z,98.50
2019-01-13T03:48:56.344Z,98.60
2019-01-13T03:51:31.483Z,98.60
2019-01-13T03:54:06.432Z,98.70
2019-01-13T03:56:41.351Z,98.80
2019-01-13T03:59:16.486Z,98.80
2019-01-13T04:01:51.347Z,98.80
2019-01-13T04:04:26.545Z,98.90
2019-01-13T04:07:01.413Z,99.10
2019-01-13T04:09:37.242Z,98.80
2019-01-13T04:12:12.082Z,98.90
2019-01-13T04:14:46.916Z,99.00
2019-01-13T04:17:21.775Z,98.80
2019-01-13T04:19:56.972Z,98.80
2019-01-13T04:22:31.821Z,98.80
2019-01-13T04:25:07.030Z,98.70
2019-01-13T04:27:42.811Z,98.70
2019-01-13T04:30:17.742Z,98.70
2019-01-13T04:32:53.010Z,98.70
2019-01-13T04:35:27.865Z,98.70
2019-01-13T04:38:02.748Z,98.70
2019-01-13T04:40:45.098Z,99.00
2019-01-13T04:43:19.945Z,98.60
2019-01-13T04:45:55.310Z,98.60
2019-01-13T04:48:30.151Z,98.60
2019-01-13T04:51:06.010Z,98.70
2019-01-13T04:53:40.841Z,98.80
2019-01-13T04:56:16.600Z,98.90
2019-01-13T04:58:51.714Z,98.80
2019-01-13T05:01:34.164Z,98.80
2019-01-13T05:04:03.418Z,98.90
2019-01-13T05:06:38.260Z,98.90
2019-01-13T05:09:14.094Z,98.90
2019-01-13T05:11:48.937Z,99.00
2019-01-13T05:14:24.793Z,98.90
2019-01-13T05:17:00.437Z,98.90
2019-01-13T05:19:35.997Z,99.00
2019-01-13T05:22:12.151Z,99.00
2019-01-13T05:24:47.290Z,98.90
2019-01-13T05:27:23.341Z,98.90
2019-01-13T05:29:58.480Z,98.80
2019-01-13T05:32:34.033Z,98.70
2019-01-13T05:35:09.874Z,98.80
2019-01-13T05:37:44.757Z,98.90
2019-01-13T05:40:19.763Z,98.90
2019-01-13T05:42:54.598Z,98.90
2019-01-13T05:45:29.456Z,98.90
2019-01-13T05:48:04.302Z,99.00
2019-01-13T05:50:39.168Z,99.00
2019-01-13T05:53:14.973Z,99.00
2019-01-13T05:55:50.169Z,98.90
2019-01-13T05:58:25.305Z,98.90
2019-01-13T06:01:01.179Z,99.00
2019-01-13T06:03:36.345Z,99.00
2019-01-13T06:06:11.190Z,99.00
2019-01-13T06:08:46.368Z,99.10
2019-01-13T06:11:21.214Z,99.10
2019-01-13T06:13:56.334Z,99.20
2019-01-13T06:16:31.468Z,99.10
2019-01-13T06:19:06.361Z,99.10
2019-01-13T06:21:42.589Z,99.30
2019-01-13T06:24:17.441Z,98.80
2019-01-13T06:26:52.291Z,98.80
2019-01-13T06:29:27.135Z,98.70
2019-01-13T06:32:28.314Z,98.60
2019-01-13T06:35:03.222Z,98.60
2019-01-13T06:37:38.386Z,98.50
2019-01-13T06:40:15.275Z,98.40
2019-01-13T06:42:50.498Z,98.30
2019-01-13T06:45:28.818Z,98.40
2019-01-13T06:48:03.757Z,98.40
2019-01-13T06:50:38.577Z,98.30
2019-01-13T06:53:13.786Z,98.40
2019-01-13T06:55:48.715Z,98.40
2019-01-13T06:58:23.661Z,98.30
2019-01-13T07:00:58.602Z,98.60
2019-01-13T07:03:33.855Z,98.20
2019-01-13T07:06:09.925Z,98.50
2019-01-13T07:08:44.759Z,98.20
2019-01-13T07:11:21.536Z,98.20
2019-01-13T07:13:56.656Z,98.00
2019-01-13T07:16:31.593Z,98.00
2019-01-13T07:19:06.827Z,98.10
2019-01-13T07:21:41.677Z,98.00
2019-01-13T07:24:16.537Z,97.90
2019-01-13T07:26:51.747Z,97.80
2019-01-13T07:29:28.243Z,97.90
2019-01-13T07:32:03.173Z,98.10
2019-01-13T07:34:38.085Z,97.80
2019-01-13T07:37:12.929Z,97.80
2019-01-13T07:39:48.034Z,97.90
2019-01-13T07:42:23.171Z,97.60
2019-01-13T07:44:57.993Z,97.90
2019-01-13T07:47:33.969Z,97.70
2019-01-13T07:50:11.711Z,97.70
2019-01-13T07:52:46.998Z,97.80
2019-01-13T07:55:21.838Z,97.90
2019-01-13T07:58:00.502Z,97.90
2019-01-13T08:00:36.510Z,97.80
2019-01-13T08:03:11.526Z,97.60
2019-01-13T08:05:47.167Z,97.60
2019-01-13T08:08:22.230Z,97.40
2019-01-13T08:10:57.075Z,97.20
2019-01-13T08:13:32.232Z,97.20
2019-01-13T08:16:07.154Z,97.10
2019-01-13T08:18:42.585Z,97.00
2019-01-13T08:21:17.529Z,96.80
2019-01-13T08:23:52.495Z,96.80
2019-01-13T08:26:27.438Z,96.90
2019-01-13T08:29:03.236Z,96.80
2019-01-13T08:31:38.177Z,96.80
2019-01-13T08:34:13.009Z,96.70
2019-01-13T08:36:48.161Z,96.50
2019-01-13T08:39:24.395Z,96.40
2019-01-13T08:41:59.312Z,96.70
2019-01-13T08:44:34.612Z,96.50
2019-01-13T08:47:09.446Z,96.40
2019-01-13T08:49:44.630Z,96.20
2019-01-13T08:52:19.478Z,96.10
2019-01-13T08:54:54.630Z,96.10
2019-01-13T08:57:29.477Z,96.40
2019-01-13T09:00:17.284Z,96.30
2019-01-13T09:02:52.121Z,96.50
2019-01-13T09:05:27.512Z,96.20
2019-01-13T09:08:02.985Z,96.30
2019-01-13T09:10:38.138Z,96.40
2019-01-13T09:13:13.269Z,97.10
2019-01-13T09:15:48.413Z,96.60
2019-01-13T09:18:23.346Z,96.50
2019-01-13T09:20:58.206Z,96.50
2019-01-13T09:23:33.068Z,96.60
2019-01-13T09:26:08.237Z,96.80
2019-01-13T09:28:43.080Z,97.10
2019-01-13T09:31:18.862Z,97.20
2019-01-13T09:33:54.053Z,97.30
2019-01-13T09:36:29.694Z,97.50
2019-01-13T09:39:07.302Z,97.60
2019-01-13T09:41:42.654Z,97.80
2019-01-13T09:44:18.515Z,98.20
2019-01-13T09:46:53.637Z,98.10
2019-01-13T09:49:28.786Z,98.10
2019-01-13T09:52:03.628Z,98.20
2019-01-13T09:54:38.462Z,98.20
2019-01-13T09:57:14.604Z,98.10
2019-01-13T09:59:50.392Z,98.10
2019-01-13T10:02:25.598Z,98.00
2019-01-13T10:05:00.717Z,98.10
2019-01-13T10:07:35.821Z,98.00
2019-01-13T10:10:13.162Z,98.10
2019-01-13T10:12:47.992Z,98.20
2019-01-13T10:15:27.386Z,98.30
2019-01-13T10:18:02.312Z,98.20
2019-01-13T10:20:38.231Z,98.20
2019-01-13T10:23:13.458Z,98.30
2019-01-13T10:25:48.277Z,98.40
2019-01-13T10:28:23.419Z,98.30
2019-01-13T10:31:03.101Z,98.10
2019-01-13T10:33:34.820Z,98.20
2019-01-13T10:36:10.889Z,98.10
2019-01-13T10:38:45.710Z,98.00
2019-01-13T10:41:20.552Z,98.00
2019-01-13T10:43:56.908Z,98.20
2019-01-13T10:46:32.064Z,98.40
2019-01-13T10:49:07.193Z,98.10
2019-01-13T10:51:43.011Z,98.30
2019-01-13T10:54:17.941Z,98.20
2019-01-13T10:56:52.779Z,98.40
2019-01-13T10:59:28.050Z,98.40
2019-01-13T11:02:02.903Z,98.60
2019-01-13T11:04:38.222Z,98.40
2019-01-13T11:07:13.091Z,98.30
2019-01-13T11:09:48.291Z,98.40
2019-01-13T11:12:23.142Z,98.30
2019-01-13T11:14:58.258Z,98.20
2019-01-13T11:17:33.496Z,98.30
2019-01-13T11:20:12.537Z,98.30
2019-01-13T11:22:47.431Z,98.30
2019-01-13T11:25:22.266Z,98.30
2019-01-13T11:27:57.157Z,98.50
2019-01-13T11:30:33.154Z,98.50
2019-01-13T11:33:09.608Z,98.40
2019-01-13T11:35:44.902Z,98.40
2019-01-13T11:38:19.757Z,98.60
2019-01-13T11:40:54.893Z,98.60
2019-01-13T11:43:29.970Z,98.50
2019-01-13T11:46:05.130Z,98.60
2019-01-13T11:48:40.270Z,98.80
2019-01-13T11:51:15.415Z,98.90
2019-01-13T11:53:50.313Z,98.80
2019-01-13T11:56:25.189Z,98.90
2019-01-13T11:59:00.416Z,99.00
2019-01-13T12:01:35.259Z,99.10
2019-01-13T12:04:10.687Z,99.20
2019-01-13T12:06:45.537Z,99.30
2019-01-13T12:09:20.389Z,99.30
2019-01-13T12:11:55.623Z,99.20
2019-01-13T12:14:30.864Z,99.20
2019-01-13T12:17:06.178Z,99.20
2019-01-13T12:19:41.014Z,99.30
2019-01-13T12:22:15.866Z,99.30
2019-01-13T12:24:50.993Z,99.40
2019-01-13T12:27:25.877Z,99.50
2019-01-13T12:30:02.090Z,99.50
2019-01-13T12:32:37.330Z,99.50
2019-01-13T12:35:12.185Z,99.60
2019-01-13T12:37:47.118Z,99.70
2019-01-13T12:40:25.366Z,99.70
2019-01-13T12:43:00.209Z,99.70
2019-01-13T12:45:36.711Z,99.90
2019-01-13T12:48:11.562Z,99.90
2019-01-13T12:50:46.418Z,99.90
2019-01-13T12:53:21.685Z,99.90
2019-01-13T12:55:56.572Z,99.90
2019-01-13T12:58:31.855Z,99.90
2019-01-13T13:01:07.880Z,99.90
2019-01-13T13:03:42.715Z,99.90
2019-01-13T13:06:17.607Z,99.90
2019-01-13T13:08:52.790Z,99.90
2019-01-13T13:11:28.010Z,99.90
2019-01-13T13:14:03.211Z,99.90
2019-01-13T13:16:39.025Z,99.90
2019-01-13T13:19:13.895Z,99.90
2019-01-13T13:21:49.019Z,99.90
2019-01-13T13:24:25.913Z,99.90
2019-01-13T13:27:02.873Z,99.90
2019-01-13T13:29:38.041Z,99.90
2019-01-13T13:32:13.537Z,99.90
2019-01-13T13:34:48.721Z,99.90
2019-01-13T13:37:23.575Z,99.90
2019-01-13T13:40:03.610Z,99.90
2019-01-13T13:42:38.730Z,99.90
2019-01-13T13:45:13.606Z,99.90
2019-01-13T13:47:48.462Z,99.90
2019-01-13T13:50:24.850Z,99.90
2019-01-13T13:53:00.497Z,99.90
2019-01-13T13:55:35.323Z,99.90
2019-01-13T13:58:10.475Z,99.90
2019-01-13T14:00:46.633Z,99.90
2019-01-13T14:03:21.753Z,99.90
2019-01-13T14:05:56.590Z,99.90
2019-01-13T14:08:31.950Z,99.90
2019-01-13T14:11:08.762Z,99.90
2019-01-13T14:13:44.342Z,99.90
2019-01-13T14:16:19.548Z,99.90
2019-01-13T14:18:55.138Z,99.90
2019-01-13T14:21:31.308Z,99.90
2019-01-13T14:24:06.456Z,99.90
2019-01-13T14:26:41.835Z,99.90
2019-01-13T14:29:20.687Z,99.90
2019-01-13T14:31:55.866Z,99.90
2019-01-13T14:34:31.098Z,99.90
2019-01-13T14:37:06.119Z,99.90
2019-01-13T14:39:48.572Z,99.90
2019-01-13T14:42:19.017Z,99.90
2019-01-13T14:44:53.987Z,99.90
2019-01-13T14:47:30.254Z,99.90
2019-01-13T14:50:09.337Z,99.90
2019-01-13T14:52:45.075Z,99.90
2019-01-13T14:55:20.064Z,99.90
2019-01-13T14:57:54.925Z,99.90
2019-01-13T15:00:32.515Z,99.90
2019-01-13T15:03:07.839Z,99.90
2019-01-13T15:05:42.737Z,99.90
2019-01-13T15:08:18.237Z,99.90
2019-01-13T15:10:53.325Z,99.90
2019-01-13T15:13:29.180Z,99.90
2019-01-13T15:16:04.379Z,99.90
2019-01-13T15:18:39.499Z,99.90
2019-01-13T15:21:14.359Z,99.90
2019-01-13T15:23:53.769Z,99.90
2019-01-13T15:26:28.664Z,99.90
2019-01-13T15:29:03.756Z,99.90
2019-01-13T15:31:39.217Z,99.90
2019-01-13T15:34:15.172Z,99.90
2019-01-13T15:36:50.102Z,99.90
2019-01-13T15:39:25.075Z,99.90
2019-01-13T15:42:00.263Z,99.90
2019-01-13T15:44:36.528Z,99.90
2019-01-13T15:47:11.771Z,99.90
2019-01-13T15:49:46.667Z,99.90
2019-01-13T15:52:23.781Z,99.90
2019-01-13T15:54:58.713Z,99.90
2019-01-13T15:57:33.566Z,99.90
2019-01-13T16:00:23.149Z,99.90
2019-01-13T16:02:59.675Z,99.90
2019-01-13T16:05:34.779Z,99.90
2019-01-13T16:08:10.032Z,99.90
2019-01-13T16:10:45.312Z,99.90
2019-01-13T16:13:20.254Z,99.90
2019-01-13T16:15:55.089Z,99.90
2019-01-13T16:18:29.988Z,99.90
2019-01-13T16:21:04.835Z,99.90
2019-01-13T16:23:39.973Z,99.90
2019-01-13T16:26:15.015Z,99.90
2019-01-13T16:28:50.537Z,99.90
2019-01-13T16:31:36.536Z,99.90
2019-01-13T16:34:11.981Z,99.90
2019-01-13T16:36:47.441Z,99.90
2019-01-13T16:39:24.708Z,99.90
2019-01-13T16:41:59.925Z,99.90
2019-01-13T16:44:35.135Z,99.90
2019-01-13T16:47:10.069Z,99.90
2019-01-13T16:49:45.298Z,99.90
2019-01-13T16:52:20.636Z,99.90
2019-01-13T16:54:56.289Z,99.90
2019-01-13T16:57:31.233Z,99.90
2019-01-13T17:00:19.292Z,99.90
2019-01-13T17:02:54.694Z,99.90
2019-01-13T17:05:29.665Z,99.90
2019-01-13T17:08:04.869Z,99.90
2019-01-13T17:10:39.805Z,99.90
2019-01-13T17:13:16.096Z,99.90
2019-01-13T17:15:53.203Z,99.90
2019-01-13T17:18:28.123Z,99.90
2019-01-13T17:21:03.181Z,99.90
2019-01-13T17:23:38.568Z,99.90
2019-01-13T17:26:13.817Z,99.90
2019-01-13T17:28:48.696Z,99.90
2019-01-13T17:31:23.863Z,99.90
2019-01-13T17:33:58.750Z,99.90
2019-01-13T17:36:33.825Z,99.90
2019-01-13T17:39:09.363Z,99.90
2019-01-13T17:41:44.720Z,99.90
2019-01-13T17:44:19.669Z,99.90
2019-01-13T17:46:54.663Z,99.90
2019-01-13T17:49:29.514Z,99.90
2019-01-13T17:52:04.452Z,99.90
2019-01-13T17:54:39.963Z,99.90
2019-01-13T17:57:15.148Z,99.90
2019-01-13T17:59:50.282Z,99.90
2019-01-13T18:02:25.522Z,99.90
2019-01-13T18:05:00.772Z,99.90
2019-01-13T18:07:39.074Z,99.90
2019-01-13T18:10:16.964Z,99.90
2019-01-13T18:12:52.078Z,99.90
2019-01-13T18:15:27.310Z,99.90
2019-01-13T18:18:03.604Z,99.90
2019-01-13T18:20:38.453Z,99.90
2019-01-13T18:23:13.420Z,99.90
2019-01-13T18:25:48.380Z,99.90
2019-01-13T18:28:23.953Z,99.80
2019-01-13T18:31:00.088Z,99.80
2019-01-13T18:33:35.369Z,99.60
2019-01-13T18:36:11.024Z,99.70
2019-01-13T18:38:48.042Z,99.60
2019-01-13T18:41:23.455Z,99.60
2019-01-13T18:43:58.403Z,99.60
2019-01-13T18:46:33.262Z,99.50
2019-01-13T18:49:08.531Z,99.50
2019-01-13T18:51:43.435Z,99.60
2019-01-13T18:54:18.577Z,99.50
2019-01-13T18:56:54.241Z,99.50
2019-01-13T18:59:30.179Z,99.70
2019-01-13T19:02:05.942Z,99.60
2019-01-13T19:04:40.795Z,99.50
2019-01-13T19:07:20.294Z,99.30
2019-01-13T19:09:55.339Z,99.00
2019-01-13T19:12:30.297Z,98.80
2019-01-13T19:15:08.516Z,98.80
2019-01-13T19:17:43.370Z,98.90
2019-01-13T19:20:19.694Z,98.80
2019-01-13T19:22:54.669Z,99.00
2019-01-13T19:25:29.595Z,99.10
2019-01-13T19:28:05.598Z,98.70
2019-01-13T19:30:40.785Z,98.40
2019-01-13T19:33:15.641Z,98.30
2019-01-13T19:35:51.671Z,98.10
2019-01-13T19:38:30.227Z,98.10
2019-01-13T19:41:05.189Z,98.30
2019-01-13T19:43:41.207Z,98.00
2019-01-13T19:46:18.662Z,98.10
2019-01-13T19:48:54.259Z,98.20
2019-01-13T19:51:30.330Z,98.10
2019-01-13T19:54:05.740Z,98.00
2019-01-13T19:56:41.122Z,98.20
2019-01-13T19:59:16.344Z,98.20
2019-01-13T20:01:51.676Z,98.30
2019-01-13T20:04:26.537Z,98.30
2019-01-13T20:07:03.145Z,98.60
2019-01-13T20:09:38.595Z,99.10
2019-01-13T20:12:13.550Z,98.90
2019-01-13T20:14:48.656Z,98.60
2019-01-13T20:17:24.922Z,98.70
2019-01-13T20:19:59.931Z,99.30
2019-01-13T20:22:34.827Z,99.20
2019-01-13T20:25:12.121Z,99.70
2019-01-13T20:27:47.555Z,99.60
2019-01-13T20:30:28.699Z,99.60
2019-01-13T20:33:04.127Z,99.40
2019-01-13T20:35:39.354Z,99.30
2019-01-13T20:38:16.604Z,99.30
2019-01-13T20:40:51.639Z,98.70
2019-01-13T20:43:31.001Z,98.60
2019-01-13T20:46:09.994Z,98.60
2019-01-13T20:48:45.669Z,98.20
2019-01-13T20:51:21.113Z,97.90
2019-01-13T20:53:59.283Z,97.80
2019-01-13T20:56:34.175Z,97.80
2019-01-13T20:59:11.246Z,97.70
2019-01-13T21:01:46.168Z,97.70
2019-01-13T21:04:21.059Z,97.50
2019-01-13T21:06:59.387Z,97.20
2019-01-13T21:09:34.728Z,97.10
2019-01-13T21:12:10.423Z,97.20
2019-01-13T21:14:45.574Z,96.80
2019-01-13T21:17:33.567Z,96.90
2019-01-13T21:20:10.028Z,97.20
2019-01-13T21:22:45.363Z,97.00
2019-01-13T21:25:23.631Z,96.90
2019-01-13T21:28:00.388Z,96.90
2019-01-13T21:30:36.310Z,97.00
2019-01-13T21:33:12.567Z,97.20
2019-01-13T21:35:47.698Z,97.10
2019-01-13T21:38:22.569Z,97.10
2019-01-13T21:40:58.696Z,97.20
2019-01-13T21:43:34.536Z,97.60
2019-01-13T21:46:09.373Z,97.20
2019-01-13T21:48:46.166Z,97.70
2019-01-13T21:51:21.253Z,97.60
2019-01-13T21:53:57.052Z,97.20
2019-01-13T21:56:33.897Z,97.40
2019-01-13T21:59:09.233Z,97.40
2019-01-13T22:01:44.180Z,97.30
2019-01-13T22:04:20.647Z,96.90
2019-01-13T22:06:55.513Z,97.30
2019-01-13T22:09:30.400Z,97.20
2019-01-13T22:12:05.344Z,96.60
2019-01-13T22:14:40.173Z,95.90
2019-01-13T22:17:16.919Z,95.70
2019-01-13T22:19:52.058Z,95.50
2019-01-13T22:22:27.241Z,95.30
2019-01-13T22:25:05.074Z,95.50
2019-01-13T22:27:40.345Z,95.60
2019-01-13T22:30:23.393Z,95.50
2019-01-13T22:32:58.808Z,95.30
2019-01-13T22:35:33.688Z,96.00
2019-01-13T22:38:09.366Z,95.10
2019-01-13T22:40:45.121Z,94.80
2019-01-13T22:43:21.076Z,94.60
2019-01-13T22:45:56.347Z,94.80
2019-01-13T22:48:31.586Z,94.40
2019-01-13T22:51:06.582Z,95.00
2019-01-13T22:53:41.468Z,95.50
2019-01-13T22:56:17.415Z,96.10
2019-01-13T22:58:52.702Z,96.80
2019-01-13T23:01:28.790Z,96.40
2019-01-13T23:04:04.028Z,95.80
2019-01-13T23:06:38.975Z,96.10
2019-01-13T23:09:14.180Z,95.90
2019-01-13T23:11:49.072Z,96.90
2019-01-13T23:14:23.928Z,96.30
2019-01-13T23:16:59.875Z,95.80
2019-01-13T23:19:34.822Z,95.90
2019-01-13T23:22:10.002Z,95.70
2019-01-13T23:24:46.143Z,96.20
2019-01-13T23:27:21.354Z,96.20
2019-01-13T23:29:56.194Z,95.80
2019-01-13T23:32:31.325Z,95.80
2019-01-13T23:35:06.454Z,96.70
2019-01-13T23:37:41.309Z,95.20
2019-01-13T23:40:16.434Z,94.90
2019-01-13T23:42:51.567Z,95.00
2019-01-13T23:45:26.457Z,94.20
2019-01-13T23:48:01.318Z,94.00
2019-01-13T23:50:37.066Z,94.10
2019-01-13T23:53:12.034Z,94.90
2019-01-13T23:55:46.873Z,94.00
2019-01-13T23:58:22.103Z,93.70
